createdAt,value
2022-08-07T00:00:14.226Z,100238.09
2022-08-07T00:02:39.697Z,100209.09
2022-08-07T00:04:37.492Z,100199.13
2022-08-07T00:06:51.103Z,100229.88
2022-08-07T00:08:53.612Z,100235.47
2022-08-07T00:10:57.546Z,100233.91
2022-08-07T00:13:23.454Z,100231.25
2022-08-07T00:15:25.862Z,100230.06
2022-08-07T00:17:40.111Z,100203.59
2022-08-07T00:20:01.665Z,100226.75
2022-08-07T00:22:04.567Z,100212.66
2022-08-07T00:24:06.340Z,100240.81
2022-08-07T00:26:18.829Z,100230.66
2022-08-07T00:28:34.439Z,100238.06
2022-08-07T00:30:47.460Z,100256.59
2022-08-07T00:32:50.083Z,100211.19
2022-08-07T00:34:51.796Z,100218.78
2022-08-07T00:36:54.628Z,100205.00
2022-08-07T00:38:56.197Z,100211.69
2022-08-07T00:41:00.585Z,100203.66
2022-08-07T00:43:02.245Z,100213.25
2022-08-07T00:45:07.081Z,100190.50
2022-08-07T00:47:16.084Z,100213.03
2022-08-07T00:50:19.128Z,100213.03
2022-08-07T00:51:57.071Z,100181.59
2022-08-07T00:54:00.216Z,100197.31
2022-08-07T00:56:03.989Z,100189.16
2022-08-07T00:58:09.017Z,100189.22
2022-08-07T01:00:11.164Z,100196.59
2022-08-07T01:02:27.895Z,100228.25
2022-08-07T01:04:30.622Z,100214.44
2022-08-07T01:06:35.054Z,100235.72
2022-08-07T01:08:37.747Z,100235.94
2022-08-07T01:10:54.229Z,100228.41
2022-08-07T01:12:57.947Z,100217.81
2022-08-07T01:15:01.572Z,100182.59
2022-08-07T01:17:07.136Z,100197.19
2022-08-07T01:19:10.977Z,100221.09
2022-08-07T01:21:25.905Z,100245.75
2022-08-07T01:23:39.473Z,100194.84
2022-08-07T01:25:55.584Z,100216.22
2022-08-07T01:27:58.408Z,100202.97
2022-08-07T01:30:02.306Z,100198.03
2022-08-07T01:32:05.205Z,100237.44
2022-08-07T01:34:07.400Z,100215.69
2022-08-07T01:36:12.154Z,100215.28
2022-08-07T01:38:24.893Z,100215.66
2022-08-07T01:40:28.944Z,100196.09
2022-08-07T01:42:39.847Z,100231.56
2022-08-07T01:44:52.882Z,100244.31
2022-08-07T01:46:55.253Z,100220.94
2022-08-07T01:48:57.218Z,100208.16
2022-08-07T01:52:02.260Z,100192.78
2022-08-07T01:54:06.267Z,100239.78
2022-08-07T01:56:07.800Z,100254.72
2022-08-07T01:58:28.970Z,100192.03
2022-08-07T02:00:32.059Z,100256.63
2022-08-07T02:03:18.703Z,100218.09
2022-08-07T02:05:43.173Z,100238.34
2022-08-07T02:07:50.526Z,100221.72
2022-08-07T02:09:58.486Z,100219.25
2022-08-07T02:12:17.641Z,100198.84
2022-08-07T02:14:36.014Z,100220.94
2022-08-07T02:16:45.445Z,100180.75
2022-08-07T02:18:49.403Z,100190.53
2022-08-07T02:20:55.950Z,100167.88
2022-08-07T02:23:05.095Z,100204.19
2022-08-07T02:25:13.743Z,100202.56
2022-08-07T02:27:22.112Z,100174.34
2022-08-07T02:29:24.820Z,100203.03
2022-08-07T02:31:29.610Z,100224.84
2022-08-07T02:33:57.247Z,100218.59
2022-08-07T02:36:28.235Z,100165.22
2022-08-07T02:38:22.761Z,100195.97
2022-08-07T02:40:35.393Z,100198.31
2022-08-07T02:42:38.749Z,100170.19
2022-08-07T02:44:48.063Z,100158.59
2022-08-07T02:46:53.869Z,100178.03
2022-08-07T02:48:56.272Z,100163.56
2022-08-07T02:51:02.911Z,100181.16
2022-08-07T02:53:11.749Z,100154.03
2022-08-07T02:55:28.696Z,100209.91
2022-08-07T02:57:43.583Z,100204.94
2022-08-07T02:59:55.283Z,100199.72
2022-08-07T03:02:03.323Z,100203.66
2022-08-07T03:04:07.680Z,100143.84
2022-08-07T03:06:16.512Z,100128.91
2022-08-07T03:08:29.538Z,100182.63
2022-08-07T03:10:31.936Z,100161.94
2022-08-07T03:12:35.133Z,100141.94
2022-08-07T03:14:37.371Z,100203.66
2022-08-07T03:16:39.655Z,100169.44
2022-08-07T03:18:44.145Z,100233.38
2022-08-07T03:20:46.889Z,100154.94
2022-08-07T03:22:50.014Z,100139.97
2022-08-07T03:24:52.140Z,100155.44
2022-08-07T03:26:58.864Z,100175.69
2022-08-07T03:29:02.696Z,100183.97
2022-08-07T03:31:24.889Z,100193.75
2022-08-07T03:33:44.513Z,100181.88
2022-08-07T03:35:50.850Z,100182.53
2022-08-07T03:37:56.565Z,100170.69
2022-08-07T03:40:15.128Z,100194.75
2022-08-07T03:42:20.018Z,100206.25
2022-08-07T03:44:34.535Z,100187.06
2022-08-07T03:46:38.110Z,100202.00
2022-08-07T03:49:02.584Z,100209.69
2022-08-07T03:51:06.874Z,100206.09
2022-08-07T03:53:12.159Z,100206.72
2022-08-07T03:55:14.249Z,100175.03
2022-08-07T03:58:35.019Z,100245.72
2022-08-07T03:59:46.396Z,100187.91
2022-08-07T04:02:02.835Z,100208.63
2022-08-07T04:04:05.563Z,100195.94
2022-08-07T04:06:37.594Z,100220.91
2022-08-07T04:08:34.360Z,100189.34
2022-08-07T04:10:38.620Z,100182.88
2022-08-07T04:12:41.606Z,100211.13
2022-08-07T04:14:47.745Z,100158.53
2022-08-07T04:16:58.107Z,100171.50
2022-08-07T04:19:03.708Z,100227.72
2022-08-07T04:21:07.389Z,100181.06
2022-08-07T04:23:10.440Z,100205.47
2022-08-07T04:25:29.219Z,100236.53
2022-08-07T04:27:35.429Z,100215.19
2022-08-07T04:29:48.922Z,100230.00
2022-08-07T04:32:02.968Z,100215.72
2022-08-07T04:34:16.579Z,100243.13
2022-08-07T04:36:18.793Z,100208.38
2022-08-07T04:38:28.285Z,100197.19
2022-08-07T04:40:31.481Z,100215.81
2022-08-07T04:42:34.528Z,100257.44
2022-08-07T04:44:37.432Z,100202.97
2022-08-07T04:47:57.405Z,100253.13
2022-08-07T04:50:11.015Z,100251.28
2022-08-07T04:52:18.473Z,100253.97
2022-08-07T04:54:30.147Z,100204.09
2022-08-07T04:58:13.821Z,100227.91
2022-08-07T05:00:11.604Z,100234.75
2022-08-07T05:01:44.956Z,100244.97
2022-08-07T05:04:07.112Z,100199.25
2022-08-07T05:06:20.049Z,100247.53
2022-08-07T05:08:59.519Z,100213.81
2022-08-07T05:11:12.050Z,100225.44
2022-08-07T05:14:53.040Z,100262.38
2022-08-07T05:15:53.565Z,100255.06
2022-08-07T05:18:35.553Z,100241.66
2022-08-07T05:20:42.913Z,100238.44
2022-08-07T05:22:48.894Z,100258.72
2022-08-07T05:24:55.619Z,100234.44
2022-08-07T05:27:00.036Z,100246.84
2022-08-07T05:29:04.956Z,100223.59
2022-08-07T05:31:08.287Z,100235.53
2022-08-07T05:33:12.848Z,100268.44
2022-08-07T05:35:23.495Z,100253.19
2022-08-07T05:37:40.948Z,100273.19
2022-08-07T05:40:05.517Z,100281.38
2022-08-07T05:42:12.533Z,100250.81
2022-08-07T05:44:17.814Z,100283.47
2022-08-07T05:46:31.781Z,100282.22
2022-08-07T05:48:34.063Z,100276.03
2022-08-07T05:50:39.348Z,100244.16
2022-08-07T05:52:44.463Z,100284.81
2022-08-07T05:54:55.383Z,100257.03
2022-08-07T05:56:58.837Z,100231.03
2022-08-07T05:59:02.656Z,100248.72
2022-08-07T06:01:10.327Z,100293.56
2022-08-07T06:03:14.344Z,100260.13
2022-08-07T06:05:17.452Z,100292.53
2022-08-07T06:07:23.050Z,100318.25
2022-08-07T06:10:05.623Z,100295.03
2022-08-07T06:12:07.627Z,100290.25
2022-08-07T06:14:11.795Z,100274.41
2022-08-07T06:16:16.417Z,100335.53
2022-08-07T06:18:18.792Z,100290.56
2022-08-07T06:20:25.374Z,100317.44
2022-08-07T06:22:39.051Z,100337.19
2022-08-07T06:24:52.554Z,100323.03
2022-08-07T06:26:58.777Z,100297.94
2022-08-07T06:29:06.502Z,100272.19
2022-08-07T06:31:08.220Z,100307.88
2022-08-07T06:33:16.048Z,100275.91
2022-08-07T06:35:18.252Z,100305.50
2022-08-07T06:37:20.626Z,100283.91
2022-08-07T06:40:17.434Z,100355.25
2022-08-07T06:42:09.263Z,100302.25
2022-08-07T06:44:13.373Z,100341.72
2022-08-07T06:46:31.133Z,100285.78
2022-08-07T06:48:33.388Z,100296.34
2022-08-07T06:50:38.426Z,100342.09
2022-08-07T06:52:52.890Z,100296.38
2022-08-07T06:55:32.011Z,100270.88
2022-08-07T06:57:20.874Z,100338.69
2022-08-07T07:00:14.718Z,100335.69
2022-08-07T07:02:07.219Z,100302.28
2022-08-07T07:04:28.098Z,100331.66
2022-08-07T07:06:34.986Z,100335.78
2022-08-07T07:08:57.022Z,100288.59
2022-08-07T07:11:01.013Z,100283.84
2022-08-07T07:13:55.440Z,100273.06
2022-08-07T07:15:50.574Z,100349.31
2022-08-07T07:17:58.117Z,100302.41
2022-08-07T07:20:02.965Z,100313.00
2022-08-07T07:22:33.763Z,100295.00
2022-08-07T07:24:27.187Z,100309.75
2022-08-07T07:26:37.125Z,100300.03
2022-08-07T07:29:39.076Z,100298.34
2022-08-07T07:31:46.808Z,100301.78
2022-08-07T07:33:57.174Z,100313.03
2022-08-07T07:36:05.231Z,100365.50
2022-08-07T07:38:17.608Z,100319.06
2022-08-07T07:40:21.477Z,100288.13
2022-08-07T07:42:32.803Z,100296.16
2022-08-07T07:44:38.414Z,100284.13
2022-08-07T07:46:55.200Z,100313.97
2022-08-07T07:50:29.874Z,100301.94
2022-08-07T07:51:24.208Z,100293.44
2022-08-07T07:53:27.315Z,100284.34
2022-08-07T07:55:37.581Z,100275.81
2022-08-07T07:57:51.946Z,100309.56
2022-08-07T07:59:56.790Z,100329.59
2022-08-07T08:02:10.266Z,100298.88
2022-08-07T08:04:13.830Z,100308.06
2022-08-07T08:06:17.641Z,100291.63
2022-08-07T08:08:35.262Z,100301.50
2022-08-07T08:10:39.525Z,100295.59
2022-08-07T08:12:59.273Z,100301.75
2022-08-07T08:15:02.066Z,100292.22
2022-08-07T08:17:56.498Z,100322.44
2022-08-07T08:20:18.551Z,100289.31
2022-08-07T08:22:36.913Z,100316.69
2022-08-07T08:25:25.088Z,100331.22
2022-08-07T08:27:39.163Z,100309.97
2022-08-07T08:29:57.383Z,100282.41
2022-08-07T08:32:17.068Z,100306.00
2022-08-07T08:34:27.300Z,100277.38
2022-08-07T08:36:34.191Z,100290.72
2022-08-07T08:38:41.168Z,100300.03
2022-08-07T08:40:49.260Z,100307.94
2022-08-07T08:42:57.753Z,100276.66
2022-08-07T08:45:13.029Z,100288.34
2022-08-07T08:47:52.118Z,100341.13
2022-08-07T08:50:28.111Z,100270.16
2022-08-07T08:52:40.577Z,100296.81
2022-08-07T08:55:12.173Z,100315.19
2022-08-07T08:57:42.340Z,100277.53
2022-08-07T08:59:57.319Z,100295.31
2022-08-07T09:02:37.515Z,100264.44
2022-08-07T09:05:14.623Z,100298.16
2022-08-07T09:07:34.167Z,100302.63
2022-08-07T09:10:18.195Z,100305.38
2022-08-07T09:12:53.062Z,100310.91
2022-08-07T09:16:25.763Z,100307.56
2022-08-07T09:18:05.979Z,100328.25
2022-08-07T09:20:58.536Z,100301.84
2022-08-07T09:24:52.561Z,100304.06
2022-08-07T09:26:01.755Z,100300.59
2022-08-07T09:30:01.292Z,100303.19
2022-08-07T09:30:47.073Z,100287.09
2022-08-07T09:33:52.552Z,100280.84
2022-08-07T09:36:07.659Z,100324.88
2022-08-07T09:38:12.081Z,100318.41
2022-08-07T09:40:52.400Z,100314.78
2022-08-07T09:43:00.465Z,100308.66
2022-08-07T09:47:20.215Z,100319.69
2022-08-07T09:48:01.172Z,100317.06
2022-08-07T09:50:18.846Z,100309.84
2022-08-07T09:52:40.638Z,100318.34
2022-08-07T09:54:54.477Z,100278.41
2022-08-07T09:56:58.953Z,100304.81
2022-08-07T09:59:46.117Z,100262.28
2022-08-07T10:02:13.291Z,100276.53
2022-08-07T10:04:28.106Z,100284.25
2022-08-07T10:07:03.134Z,100278.25
2022-08-07T10:09:23.822Z,100281.59
2022-08-07T10:12:15.161Z,100267.00
2022-08-07T10:14:31.112Z,100273.50
2022-08-07T10:16:52.594Z,100298.34
2022-08-07T10:19:19.192Z,100236.22
2022-08-07T10:22:14.399Z,100250.97
2022-08-07T10:24:18.396Z,100276.09
2022-08-07T10:26:44.713Z,100259.19
2022-08-07T10:29:00.749Z,100238.31
2022-08-07T10:31:24.050Z,100241.16
2022-08-07T10:34:06.629Z,100253.66
2022-08-07T10:36:29.242Z,100262.22
2022-08-07T10:38:48.868Z,100247.47
2022-08-07T10:41:05.683Z,100265.34
2022-08-07T10:43:12.397Z,100254.78
2022-08-07T10:45:45.366Z,100237.94
2022-08-07T10:48:08.512Z,100246.13
2022-08-07T10:50:25.890Z,100255.44
2022-08-07T10:52:51.151Z,100247.88
2022-08-07T10:55:20.966Z,100253.28
2022-08-07T10:57:56.118Z,100243.06
2022-08-07T11:00:08.942Z,100233.69
2022-08-07T11:03:52.776Z,100199.31
2022-08-07T11:06:26.842Z,100215.84
2022-08-07T11:08:36.687Z,100229.44
2022-08-07T11:11:03.618Z,100212.47
2022-08-07T11:14:42.522Z,100232.56
2022-08-07T11:15:54.523Z,100225.59
2022-08-07T11:18:06.222Z,100220.06
2022-08-07T11:20:16.972Z,100217.47
2022-08-07T11:22:36.982Z,100223.91
2022-08-07T11:24:52.118Z,100229.06
2022-08-07T11:28:01.664Z,100214.31
2022-08-07T11:30:18.051Z,100204.13
2022-08-07T11:32:35.594Z,100212.91
2022-08-07T11:34:50.687Z,100199.06
2022-08-07T11:37:11.970Z,100203.50
2022-08-07T11:39:20.499Z,100202.16
2022-08-07T11:42:01.780Z,100200.06
2022-08-07T11:44:12.145Z,100169.47
2022-08-07T11:46:40.584Z,100190.41
2022-08-07T11:49:28.708Z,100167.47
2022-08-07T11:51:44.613Z,100192.59
2022-08-07T11:54:10.097Z,100182.81
2022-08-07T11:56:30.561Z,100182.19
2022-08-07T11:58:58.911Z,100185.03
2022-08-07T12:01:22.072Z,100166.47
2022-08-07T12:03:58.567Z,100176.81
2022-08-07T12:06:37.358Z,100171.75
2022-08-07T12:08:48.493Z,100170.81
2022-08-07T12:11:20.465Z,100178.16
2022-08-07T12:13:37.868Z,100170.75
2022-08-07T12:16:07.017Z,100171.72
2022-08-07T12:18:29.692Z,100156.31
2022-08-07T12:20:44.879Z,100162.00
2022-08-07T12:24:05.757Z,100165.94
2022-08-07T12:26:23.425Z,100152.50
2022-08-07T12:28:33.563Z,100143.41
2022-08-07T12:30:40.917Z,100145.56
2022-08-07T12:33:01.966Z,100137.38
2022-08-07T12:35:26.627Z,100122.69
2022-08-07T12:38:09.396Z,100141.97
2022-08-07T12:39:58.935Z,100139.56
2022-08-07T12:42:02.557Z,100125.97
2022-08-07T12:44:13.171Z,100126.50
2022-08-07T12:46:32.376Z,100137.47
2022-08-07T12:48:55.528Z,100131.69
2022-08-07T12:51:13.115Z,100126.78
2022-08-07T12:53:27.465Z,100131.97
2022-08-07T12:56:02.482Z,100125.16
2022-08-07T12:58:07.753Z,100128.16
2022-08-07T13:00:12.830Z,100125.31
2022-08-07T13:02:40.232Z,100130.09
2022-08-07T13:05:10.321Z,100115.81
2022-08-07T13:08:14.465Z,100129.47
2022-08-07T13:10:39.317Z,100118.84
2022-08-07T13:12:56.487Z,100107.59
2022-08-07T13:15:29.704Z,100088.19
2022-08-07T13:17:59.349Z,100109.53
2022-08-07T13:20:07.929Z,100106.50
2022-08-07T13:22:29.589Z,100102.63
2022-08-07T13:25:02.793Z,100078.59
2022-08-07T13:27:12.838Z,100082.63
2022-08-07T13:29:20.396Z,100112.81
2022-08-07T13:31:54.930Z,100093.41
2022-08-07T13:34:33.767Z,100077.69
2022-08-07T13:37:00.202Z,100084.88
2022-08-07T13:39:28.488Z,100077.78
2022-08-07T13:41:54.649Z,100078.25
2022-08-07T13:44:00.302Z,100074.53
2022-08-07T13:46:11.454Z,100070.56
2022-08-07T13:48:34.175Z,100058.34
2022-08-07T13:51:00.162Z,100044.34
2022-08-07T13:53:02.917Z,100050.31
2022-08-07T13:55:19.686Z,100048.03
2022-08-07T13:57:38.080Z,100058.00
2022-08-07T13:59:45.546Z,100043.16
2022-08-07T14:02:05.296Z,100042.91
2022-08-07T14:04:15.734Z,100026.03
2022-08-07T14:06:31.486Z,100028.97
2022-08-07T14:08:43.084Z,100034.78
2022-08-07T14:11:01.061Z,100032.44
2022-08-07T14:13:17.998Z,100023.22
2022-08-07T14:15:32.107Z,100020.28
2022-08-07T14:18:24.163Z,100013.44
2022-08-07T14:20:41.016Z,100024.72
2022-08-07T14:22:35.187Z,100004.16
2022-08-07T14:24:51.263Z,100009.38
2022-08-07T14:26:58.625Z,99997.16
2022-08-07T14:30:02.882Z,99998.16
2022-08-07T14:31:42.724Z,100004.00
2022-08-07T14:33:46.398Z,100011.75
2022-08-07T14:35:48.552Z,99998.44
2022-08-07T14:38:05.801Z,100008.66
2022-08-07T14:40:17.032Z,100005.09
2022-08-07T14:42:31.309Z,99998.63
2022-08-07T14:44:34.825Z,100001.25
2022-08-07T14:46:38.236Z,100010.97
2022-08-07T14:48:57.521Z,99993.31
2022-08-07T14:51:04.612Z,99989.00
2022-08-07T14:53:08.057Z,99986.88
2022-08-07T14:55:17.498Z,99986.81
2022-08-07T14:57:24.428Z,99986.72
2022-08-07T15:01:51.026Z,99989.41
2022-08-07T15:03:53.867Z,99992.81
2022-08-07T15:06:03.964Z,99987.81
2022-08-07T15:08:09.065Z,99984.75
2022-08-07T15:10:19.773Z,99986.34
2022-08-07T15:12:41.991Z,99987.88
2022-08-07T15:14:56.323Z,99984.59
2022-08-07T15:17:16.711Z,99981.50
2022-08-07T15:19:21.509Z,99983.09
2022-08-07T15:22:04.113Z,99987.50
2022-08-07T15:25:13.967Z,99984.16
2022-08-07T15:26:38.258Z,99976.38
2022-08-07T15:28:53.523Z,99976.03
2022-08-07T15:33:33.513Z,99974.44
2022-08-07T15:36:00.917Z,99974.03
2022-08-07T15:38:17.630Z,99974.09
2022-08-07T15:42:53.860Z,99966.19
2022-08-07T15:44:57.443Z,99962.38
2022-08-07T15:47:08.988Z,99968.53
2022-08-07T15:49:25.402Z,99952.44
2022-08-07T15:54:02.102Z,99965.28
2022-08-07T15:56:13.773Z,99957.50
2022-08-07T15:58:21.099Z,99954.31
2022-08-07T16:00:33.667Z,99953.88
2022-08-07T16:02:46.643Z,99950.13
2022-08-07T16:04:49.502Z,99951.69
2022-08-07T16:07:00.155Z,99956.41
2022-08-07T16:09:22.402Z,99946.03
2022-08-07T16:11:43.214Z,99943.78
2022-08-07T16:13:58.524Z,99930.44
2022-08-07T16:16:48.583Z,99936.91
2022-08-07T16:19:04.255Z,99934.06
2022-08-07T16:21:56.974Z,99938.09
2022-08-07T16:23:58.844Z,99953.66
2022-08-07T16:26:31.131Z,99943.00
2022-08-07T16:30:06.015Z,99946.94
2022-08-07T16:31:50.709Z,99948.44
2022-08-07T16:34:10.139Z,99935.97
2022-08-07T16:37:02.454Z,99934.41
2022-08-07T16:39:16.495Z,99944.75
2022-08-07T16:41:22.351Z,99946.50
2022-08-07T16:44:02.541Z,99936.06
2022-08-07T16:47:05.940Z,99934.34
2022-08-07T16:50:26.604Z,99933.09
2022-08-07T16:52:49.119Z,99932.72
2022-08-07T16:54:37.638Z,99934.13
2022-08-07T16:56:39.182Z,99931.78
2022-08-07T16:59:14.805Z,99935.00
2022-08-07T17:02:03.524Z,99935.16
2022-08-07T17:04:26.806Z,99937.09
2022-08-07T17:07:02.872Z,99935.88
2022-08-07T17:09:10.432Z,99947.13
2022-08-07T17:11:50.750Z,99939.06
2022-08-07T17:14:18.044Z,99943.97
2022-08-07T17:16:25.311Z,99938.38
2022-08-07T17:18:46.091Z,99947.56
2022-08-07T17:20:47.927Z,99939.09
2022-08-07T17:23:32.198Z,99936.53
2022-08-07T17:25:52.243Z,99938.72
2022-08-07T17:28:13.063Z,99941.69
2022-08-07T17:30:26.687Z,99940.25
2022-08-07T17:32:52.896Z,99938.19
2022-08-07T17:35:50.411Z,99952.91
2022-08-07T17:38:09.668Z,99942.22
2022-08-07T17:40:30.474Z,99941.66
2022-08-07T17:42:35.897Z,99948.53
2022-08-07T17:44:58.924Z,99951.91
2022-08-07T17:47:08.499Z,99946.25
2022-08-07T17:49:30.097Z,99947.91
2022-08-07T17:51:49.704Z,99949.72
2022-08-07T17:54:39.625Z,99949.69
2022-08-07T17:57:18.891Z,99943.78
2022-08-07T17:59:23.847Z,99941.94
2022-08-07T18:01:36.750Z,99940.81
2022-08-07T18:04:04.005Z,99939.81
2022-08-07T18:06:16.689Z,99936.59
2022-08-07T18:09:00.659Z,99942.31
2022-08-07T18:12:17.517Z,99931.75
2022-08-07T18:14:10.352Z,99938.28
2022-08-07T18:16:32.837Z,99928.59
2022-08-07T18:21:05.946Z,99926.59
2022-08-07T18:21:37.383Z,99931.06
2022-08-07T18:23:50.841Z,99933.22
2022-08-07T18:26:14.974Z,99934.44
2022-08-07T18:28:34.124Z,99937.59
2022-08-07T18:30:58.625Z,99920.97
2022-08-07T18:33:24.676Z,99935.06
2022-08-07T18:35:51.844Z,99952.94
2022-08-07T18:38:55.492Z,99945.34
2022-08-07T18:41:45.384Z,99942.03
2022-08-07T18:44:12.368Z,99956.56
2022-08-07T18:46:27.073Z,99967.78
2022-08-07T18:50:30.416Z,99959.84
2022-08-07T18:52:34.343Z,99968.22
2022-08-07T18:54:31.230Z,99959.56
2022-08-07T18:56:57.953Z,99981.09
2022-08-07T18:59:47.808Z,99970.81
2022-08-07T19:02:18.018Z,99968.28
2022-08-07T19:04:32.109Z,99984.13
2022-08-07T19:06:48.242Z,99979.81
2022-08-07T19:08:55.934Z,99980.91
2022-08-07T19:11:36.120Z,99982.56
2022-08-07T19:13:44.561Z,99987.19
2022-08-07T19:16:05.403Z,99987.31
2022-08-07T19:18:19.562Z,99988.94
2022-08-07T19:21:09.366Z,99976.53
2022-08-07T19:23:57.243Z,99995.53
2022-08-07T19:26:21.933Z,99989.06
2022-08-07T19:28:56.942Z,99982.63
2022-08-07T19:31:00.841Z,99975.34
2022-08-07T19:33:13.192Z,99994.31
2022-08-07T19:35:22.627Z,99989.91
2022-08-07T19:37:25.334Z,99987.59
2022-08-07T19:40:02.699Z,99977.31
2022-08-07T19:42:24.458Z,99992.94
2022-08-07T19:44:37.914Z,99994.94
2022-08-07T19:46:55.399Z,99989.78
2022-08-07T19:49:58.273Z,99988.91
2022-08-07T19:51:53.254Z,100008.56
2022-08-07T19:54:34.344Z,100008.97
2022-08-07T19:57:51.231Z,100005.03
2022-08-07T19:58:53.034Z,100010.81
2022-08-07T20:00:57.869Z,99999.63
2022-08-07T20:03:31.389Z,100005.97
2022-08-07T20:05:30.921Z,100020.50
2022-08-07T20:07:58.343Z,100005.28
2022-08-07T20:10:34.339Z,100013.06
2022-08-07T20:12:31.697Z,100015.94
2022-08-07T20:14:53.575Z,100012.78
2022-08-07T20:16:57.679Z,100021.81
2022-08-07T20:19:00.293Z,100011.72
2022-08-07T20:21:21.422Z,100020.25
2022-08-07T20:23:42.947Z,100021.97
2022-08-07T20:25:52.972Z,100015.16
2022-08-07T20:27:58.662Z,100002.66
2022-08-07T20:30:10.991Z,100010.84
2022-08-07T20:32:22.221Z,100012.66
2022-08-07T20:34:49.657Z,100016.28
2022-08-07T20:36:52.034Z,100022.69
2022-08-07T20:39:00.384Z,100019.53
2022-08-07T20:41:05.450Z,100016.56
2022-08-07T20:43:14.852Z,100018.91
2022-08-07T20:45:33.539Z,100016.44
2022-08-07T20:47:56.236Z,100019.91
2022-08-07T20:50:02.982Z,100027.56
2022-08-07T20:52:16.693Z,100013.56
2022-08-07T20:54:29.540Z,100004.28
2022-08-07T20:56:45.995Z,100018.63
2022-08-07T20:58:53.328Z,100003.19
2022-08-07T21:01:06.508Z,100005.88
2022-08-07T21:03:25.987Z,100008.16
2022-08-07T21:05:50.633Z,100006.28
2022-08-07T21:07:55.795Z,100002.56
2022-08-07T21:10:00.852Z,99994.72
2022-08-07T21:12:05.609Z,99993.75
2022-08-07T21:14:35.314Z,100011.38
2022-08-07T21:16:55.939Z,99994.97
2022-08-07T21:19:00.178Z,100006.03
2022-08-07T21:21:04.144Z,99995.38
2022-08-07T21:23:18.276Z,99995.28
2022-08-07T21:25:56.159Z,99995.47
2022-08-07T21:28:48.824Z,99995.09
2022-08-07T21:31:12.609Z,99989.47
2022-08-07T21:33:41.451Z,100001.47
2022-08-07T21:36:05.630Z,99995.94
2022-08-07T21:38:27.786Z,100005.56
2022-08-07T21:40:47.999Z,99996.38
2022-08-07T21:42:58.264Z,100013.09
2022-08-07T21:46:08.366Z,100022.63
2022-08-07T21:47:50.373Z,100017.13
2022-08-07T21:50:04.981Z,100014.16
2022-08-07T21:52:11.657Z,100017.94
2022-08-07T21:54:19.742Z,100032.13
2022-08-07T21:56:39.694Z,100029.78
2022-08-07T21:59:07.609Z,100029.34
2022-08-07T22:02:10.703Z,100021.59
2022-08-07T22:04:25.073Z,100037.00
2022-08-07T22:06:35.849Z,100030.59
2022-08-07T22:08:46.006Z,100044.22
2022-08-07T22:11:11.123Z,100048.66
2022-08-07T22:13:14.443Z,100047.97
2022-08-07T22:16:43.244Z,100052.72
2022-08-07T22:17:57.923Z,100051.03
2022-08-07T22:20:25.866Z,100049.06
2022-08-07T22:22:40.119Z,100048.63
2022-08-07T22:24:55.396Z,100048.31
2022-08-07T22:27:03.701Z,100046.25
2022-08-07T22:29:48.017Z,100040.53
2022-08-07T22:32:05.973Z,100042.19
2022-08-07T22:34:12.805Z,100050.28
2022-08-07T22:36:39.734Z,100042.94
2022-08-07T22:39:09.041Z,100034.28
2022-08-07T22:41:20.845Z,100036.00
2022-08-07T22:43:42.532Z,100044.78
2022-08-07T22:46:46.735Z,100027.91
2022-08-07T22:49:09.419Z,100029.03
2022-08-07T22:51:43.691Z,100039.97
2022-08-07T22:54:08.788Z,100033.53
2022-08-07T22:56:28.842Z,100043.66
2022-08-07T22:58:31.016Z,100048.84
2022-08-07T23:01:01.995Z,100058.19
2022-08-07T23:03:15.892Z,100058.59
2022-08-07T23:06:09.634Z,100046.59
2022-08-07T23:08:22.339Z,100042.78
2022-08-07T23:10:42.339Z,100031.50
2022-08-07T23:12:57.834Z,100044.25
2022-08-07T23:16:06.032Z,100062.81
2022-08-07T23:18:34.442Z,100066.28
2022-08-07T23:21:09.971Z,100059.50
2022-08-07T23:24:05.966Z,100056.28
2022-08-07T23:26:13.036Z,100057.03
2022-08-07T23:28:37.336Z,100052.56
2022-08-07T23:30:46.712Z,100069.09
2022-08-07T23:34:35.553Z,100049.44
2022-08-07T23:36:03.072Z,100049.25
2022-08-07T23:38:19.465Z,100042.19
2022-08-07T23:41:12.222Z,100034.50
2022-08-07T23:43:25.354Z,100036.44
2022-08-07T23:46:03.753Z,100057.84
2022-08-07T23:48:18.603Z,100041.47
2022-08-07T23:50:36.897Z,100041.75
2022-08-07T23:52:58.788Z,100035.16
2022-08-07T23:55:52.465Z,100041.34
2022-08-07T23:57:56.613Z,100053.72
